Time;durP1;ratioP1;P1;durP2;ratioP2;P2;SDS_P1;SDS_P2;PMS_P1;PMS_P2;Temp;Humidity;BMP_temperature;BMP_pressure;BME280_temperature;BME280_humidity;BME280_pressure;Samples;Min_cycle;Max_cycle;Signal;HPM_P1;HPM_P2
2022/03/05 00:00:50;;;;;;;;;91.00;71.75;;;;;8.15;68.07;101606.97;5076160;28;45440;-68
2022/03/05 00:03:16;;;;;;;;;89.75;66.75;;;;;8.23;71.25;101607.81;5075551;27;45435;-67
2022/03/05 00:05:41;;;;;;;;;89.75;68.50;;;;;8.34;70.38;101608.72;5068228;27;46463;-67
2022/03/05 00:08:07;;;;;;;;;87.75;70.00;;;;;8.21;72.40;101570.22;5076766;27;45333;-68
2022/03/05 00:10:33;;;;;;;;;82.00;61.25;;;;;8.46;72.58;101599.13;5075189;27;45400;-69
2022/03/05 00:12:59;;;;;;;;;83.25;65.75;;;;;8.55;73.63;101606.97;5070810;27;46734;-69
2022/03/05 00:15:25;;;;;;;;;88.00;66.25;;;;;8.61;76.40;101603.47;5065510;28;46405;-69
2022/03/05 00:17:51;;;;;;;;;86.75;64.50;;;;;8.68;74.98;101607.84;5073916;28;45514;-66
2022/03/05 00:20:18;;;;;;;;;86.75;64.75;;;;;8.75;75.94;101614.84;5077062;27;45554;-66
2022/03/05 00:22:45;;;;;;;;;84.00;59.75;;;;;8.78;77.31;101612.22;5077051;27;45465;-66
2022/03/05 00:25:11;;;;;;;;;90.00;68.00;;;;;8.79;79.16;101613.09;5076782;27;45472;-66
2022/03/05 00:27:37;;;;;;;;;83.25;71.75;;;;;8.77;78.20;101605.25;5076571;27;45423;-65
2022/03/05 00:30:03;;;;;;;;;86.00;62.75;;;;;8.84;77.04;101619.22;5076249;27;45484;-65
2022/03/05 00:32:29;;;;;;;;;73.00;57.50;;;;;8.74;72.71;101599.09;5076848;27;45381;-66
2022/03/05 00:34:55;;;;;;;;;85.00;63.75;;;;;8.86;76.46;101630.59;5076581;27;46469;-66
2022/03/05 00:37:20;;;;;;;;;87.50;63.00;;;;;8.83;75.89;101620.97;5076814;28;45321;-65
2022/03/05 00:39:45;;;;;;;;;86.50;65.75;;;;;8.81;77.79;101630.59;5076501;28;45517;-65
2022/03/05 00:42:13;;;;;;;;;82.00;59.50;;;;;8.67;80.83;101609.63;5077028;28;45423;-63
2022/03/05 00:44:38;;;;;;;;;79.25;61.00;;;;;8.75;78.52;101616.59;5076371;27;46298;-64
2022/03/05 00:47:03;;;;;;;;;87.75;62.25;;;;;8.81;81.23;101624.47;5076413;27;45455;-64
2022/03/05 00:49:29;;;;;;;;;85.75;68.75;;;;;8.69;80.92;101613.09;5076723;28;45367;-65
2022/03/05 00:51:54;;;;;;;;;83.75;60.25;;;;;8.75;80.70;101614.84;5076746;27;45272;-65
2022/03/05 00:54:20;;;;;;;;;85.50;64.25;;;;;8.85;80.82;101629.72;5076429;28;46208;-65
2022/03/05 00:56:46;;;;;;;;;82.25;61.00;;;;;8.72;79.87;101612.22;5076038;27;45480;-65
2022/03/05 00:59:12;;;;;;;;;76.75;57.75;;;;;8.79;78.38;101631.50;5076260;28;45344;-65
2022/03/05 01:01:38;;;;;;;;;85.50;63.50;;;;;8.68;79.83;101615.72;5076696;27;45492;-65
2022/03/05 01:04:03;;;;;;;;;84.00;63.00;;;;;8.79;79.21;101626.25;5075881;27;46026;-65
2022/03/05 01:06:30;;;;;;;;;82.50;66.00;;;;;8.71;79.04;101634.09;5076406;27;45498;-65
2022/03/05 01:08:56;;;;;;;;;87.00;70.50;;;;;8.69;80.06;101635.88;5076261;27;45307;-65
2022/03/05 01:11:22;;;;;;;;;86.25;66.75;;;;;8.44;80.46;101593.88;5078857;27;45429;-65
2022/03/05 01:13:47;;;;;;;;;81.25;61.25;;;;;8.42;79.92;101589.47;5079444;28;45434;-66
2022/03/05 01:16:13;;;;;;;;;83.50;59.75;;;;;8.51;79.92;101605.22;5079745;28;45295;-65
2022/03/05 01:18:38;;;;;;;;;94.00;73.00;;;;;8.46;80.51;101609.63;5079790;28;45411;-64
2022/03/05 01:21:04;;;;;;;;;84.00;67.00;;;;;8.50;80.09;101619.25;5079833;28;45386;-65
2022/03/05 01:23:29;;;;;;;;;86.75;66.25;;;;;8.45;80.23;101613.13;5079487;28;45435;-65
2022/03/05 01:25:55;;;;;;;;;83.50;63.50;;;;;8.48;80.13;101628.84;5079380;27;45418;-65
2022/03/05 01:28:20;;;;;;;;;85.25;66.50;;;;;8.52;79.33;101630.59;5079687;28;45438;-66
2022/03/05 01:30:46;;;;;;;;;87.00;71.25;;;;;8.54;80.79;101627.13;5079838;27;45261;-66
2022/03/05 01:33:17;;;;;;;;;90.50;63.75;;;;;8.57;80.87;101626.25;5079167;27;46291;-66
2022/03/05 01:35:43;;;;;;;;;85.25;69.00;;;;;8.51;80.20;101619.25;5078945;27;45538;-67
2022/03/05 01:38:09;;;;;;;;;85.75;63.25;;;;;8.57;80.10;101623.63;5079653;27;45399;-66
2022/03/05 01:40:35;;;;;;;;;89.75;73.50;;;;;8.53;80.60;101622.72;5095350;27;45563;-66
2022/03/05 01:43:00;;;;;;;;;89.25;69.00;;;;;8.51;80.38;101616.63;5079150;27;46177;-66
2022/03/05 01:45:26;;;;;;;;;92.75;70.75;;;;;8.49;80.95;101622.75;5078054;27;45370;-66
2022/03/05 01:47:54;;;;;;;;;86.00;67.25;;;;;8.52;80.28;101623.63;5082468;27;45412;-66
2022/03/05 01:50:19;;;;;;;;;95.00;72.25;;;;;8.52;79.88;101622.75;5080041;27;45501;-67
2022/03/05 01:52:45;;;;;;;;;82.75;61.25;;;;;8.46;77.91;101620.13;5079298;27;46607;-68
2022/03/05 01:55:12;;;;;;;;;82.50;64.75;;;;;8.48;80.57;101628.84;5079233;27;45423;-67
2022/03/05 01:57:38;;;;;;;;;89.00;74.75;;;;;8.41;80.80;101625.34;5071584;27;45361;-67
2022/03/05 02:00:06;;;;;;;;;84.25;63.25;;;;;8.41;80.54;101613.94;5076273;28;45322;-67
2022/03/05 02:02:32;;;;;;;;;86.25;74.50;;;;;8.41;79.40;101616.56;5079125;27;46213;-67
2022/03/05 02:04:57;;;;;;;;;88.50;69.75;;;;;8.41;81.13;101620.09;5079048;27;45307;-67
2022/03/05 02:07:23;;;;;;;;;97.25;80.00;;;;;8.37;81.16;101613.09;5079404;27;45429;-67
2022/03/05 02:09:48;;;;;;;;;89.50;69.50;;;;;8.33;81.21;101611.34;5079895;27;45458;-67
2022/03/05 02:12:14;;;;;;;;;86.50;70.75;;;;;8.16;81.83;101592.94;5079224;28;45444;-67
2022/03/05 02:14:39;;;;;;;;;126.25;96.00;;;;;8.22;81.08;101605.19;5078992;27;45494;-67
2022/03/05 02:17:05;;;;;;;;;113.25;85.00;;;;;7.98;81.82;101568.44;5078589;27;45356;-67
2022/03/05 02:19:30;;;;;;;;;92.25;75.00;;;;;8.26;82.26;101615.69;5079365;28;45435;-67
2022/03/05 02:21:55;;;;;;;;;100.50;76.75;;;;;8.25;82.72;101610.44;5078760;28;45955;-67
2022/03/05 02:24:33;;;;;;;;;99.25;76.50;;;;;8.18;82.30;101591.22;5079243;27;45373;-67
2022/03/05 02:27:03;;;;;;;;;97.75;74.00;;;;;8.27;82.56;101609.56;5079078;27;45451;-67
2022/03/05 02:29:31;;;;;;;;;90.50;70.25;;;;;8.26;81.97;101606.94;5079485;27;45234;-67
2022/03/05 02:31:56;;;;;;;;;87.75;70.25;;;;;8.17;83.14;101590.31;5078515;28;45416;-67
2022/03/05 02:34:22;;;;;;;;;89.25;71.25;;;;;8.26;83.30;101604.31;5078590;27;45359;-67
2022/03/05 02:36:48;;;;;;;;;99.25;72.00;;;;;8.23;82.82;101599.09;5079206;27;45404;-67
2022/03/05 02:39:13;;;;;;;;;90.00;74.00;;;;;8.26;83.07;101593.84;5078941;28;45319;-67
2022/03/05 02:41:39;;;;;;;;;90.75;72.25;;;;;8.11;83.14;101577.22;5078779;27;46605;-67
2022/03/05 02:44:05;;;;;;;;;86.75;65.75;;;;;8.25;82.89;101597.31;5078762;28;45295;-67
2022/03/05 02:46:30;;;;;;;;;83.50;65.75;;;;;8.23;81.84;101596.47;5078871;27;45324;-67
2022/03/05 02:48:56;;;;;;;;;85.00;66.75;;;;;8.22;81.63;101594.69;5078900;28;45276;-67
2022/03/05 02:51:22;;;;;;;;;84.25;64.75;;;;;8.19;82.49;101604.34;5078136;27;46431;-67
2022/03/05 02:53:48;;;;;;;;;86.75;63.75;;;;;8.12;82.90;101591.22;5078957;27;45442;-67
2022/03/05 02:56:14;;;;;;;;;90.50;63.00;;;;;8.12;83.13;101588.59;5078627;27;45201;-67
2022/03/05 02:58:40;;;;;;;;;85.50;62.75;;;;;8.09;83.00;101592.09;5078981;27;45170;-67
2022/03/05 03:01:05;;;;;;;;;82.75;65.75;;;;;8.07;84.18;101588.56;5078960;27;46491;-67
2022/03/05 03:03:31;;;;;;;;;84.75;64.25;;;;;8.11;83.62;101600.81;5078565;27;45413;-67
2022/03/05 03:05:56;;;;;;;;;90.00;67.25;;;;;8.10;84.30;101598.19;5078728;28;45305;-67
2022/03/05 03:08:21;;;;;;;;;78.25;59.00;;;;;7.78;82.88;101550.06;5078953;27;45565;-67
2022/03/05 03:10:47;;;;;;;;;81.00;61.00;;;;;7.99;82.46;101595.56;5078024;27;47400;-67
2022/03/05 03:13:12;;;;;;;;;76.00;56.00;;;;;7.62;82.99;101528.22;5078506;27;45407;-67
2022/03/05 03:15:38;;;;;;;;;88.50;63.75;;;;;7.97;82.15;101597.28;5078566;27;45315;-67
2022/03/05 03:18:03;;;;;;;;;81.25;60.50;;;;;7.85;82.51;101583.28;5078976;27;45457;-67
2022/03/05 03:20:28;;;;;;;;;76.00;56.50;;;;;7.94;82.72;101592.06;5078145;27;46155;-67
2022/03/05 03:22:55;;;;;;;;;76.75;57.50;;;;;7.93;82.78;101592.91;5078212;27;45603;-67
2022/03/05 03:25:20;;;;;;;;;82.25;58.75;;;;;7.67;81.89;101550.06;5078344;27;45254;-67
2022/03/05 03:27:46;;;;;;;;;82.25;60.25;;;;;7.82;82.99;101590.28;5078405;27;45376;-67
2022/03/05 03:30:12;;;;;;;;;82.25;61.75;;;;;7.80;84.64;101584.19;5078061;28;46115;-67
2022/03/05 03:32:39;;;;;;;;;81.75;63.00;;;;;7.74;84.97;101577.16;5077379;27;45317;-67
2022/03/05 03:35:07;;;;;;;;;88.25;65.50;;;;;7.81;84.31;101589.41;5077852;27;45362;-67
2022/03/05 03:37:33;;;;;;;;;87.50;65.00;;;;;7.84;84.98;101592.03;5078352;27;45427;-67
2022/03/05 03:40:00;;;;;;;;;86.00;67.25;;;;;7.83;84.12;101600.78;5077666;27;46050;-67
2022/03/05 03:42:26;;;;;;;;;86.75;62.75;;;;;7.81;84.70;101591.16;5077763;27;45402;-67
2022/03/05 03:44:52;;;;;;;;;84.25;62.75;;;;;7.76;84.22;101592.91;5077774;27;45352;-67
2022/03/05 03:47:19;;;;;;;;;80.50;58.00;;;;;7.76;84.73;101593.75;5078271;27;45454;-67
2022/03/05 03:49:44;;;;;;;;;82.75;59.00;;;;;7.75;84.86;101585.91;5077629;27;45565;-67
2022/03/05 03:52:10;;;;;;;;;81.75;61.75;;;;;7.79;85.67;101590.28;5077844;27;45440;-67
2022/03/05 03:54:35;;;;;;;;;77.50;60.75;;;;;7.72;85.21;101578.88;5078063;27;45405;-67
2022/03/05 03:57:01;;;;;;;;;81.50;60.00;;;;;7.81;84.88;101585.91;5077977;27;45367;-67
2022/03/05 03:59:27;;;;;;;;;80.75;59.25;;;;;7.80;85.66;101587.66;5077952;27;45604;-66
2022/03/05 04:01:52;;;;;;;;;86.00;60.75;;;;;7.83;85.91;101592.03;5077786;27;45379;-67
2022/03/05 04:04:17;;;;;;;;;82.50;61.25;;;;;7.87;85.06;101598.16;5077338;27;45745;-67
2022/03/05 04:09:26;;;;;;;;;84.50;65.00;;;;;7.83;86.08;101595.53;5077698;28;45795;-67
2022/03/05 04:11:52;;;;;;;;;76.50;59.50;;;;;7.87;85.83;101585.94;5076164;28;45569;-67
2022/03/05 04:14:17;;;;;;;;;85.25;63.25;;;;;7.88;86.30;101587.66;5077409;27;45363;-67
2022/03/05 04:16:43;;;;;;;;;81.75;60.25;;;;;7.89;86.12;101591.19;5077905;27;45359;-67
2022/03/05 04:19:08;;;;;;;;;83.25;63.25;;;;;7.58;86.04;101529.06;5077424;27;45371;-67
2022/03/05 04:21:34;;;;;;;;;80.75;60.50;;;;;7.84;85.67;101572.78;5077254;28;45241;-67
2022/03/05 04:23:59;;;;;;;;;80.25;59.50;;;;;7.89;86.74;101578.06;5077197;28;45363;-67
2022/03/05 04:26:25;;;;;;;;;83.75;61.50;;;;;7.83;87.28;101571.94;5076469;28;45561;-67
2022/03/05 04:28:50;;;;;;;;;87.25;66.50;;;;;7.89;86.69;101580.69;5077318;27;45332;-67
2022/03/05 04:31:15;;;;;;;;;82.00;61.75;;;;;7.94;85.83;101589.44;5077070;27;45428;-67
2022/03/05 04:33:41;;;;;;;;;80.75;59.00;;;;;7.85;87.41;101575.41;5077432;28;45292;-67
2022/03/05 04:36:06;;;;;;;;;86.25;61.25;;;;;7.94;87.36;101587.66;5077051;27;45242;-67
2022/03/05 04:38:32;;;;;;;;;82.75;59.25;;;;;7.95;86.72;101583.31;5077081;27;46218;-67
2022/03/05 04:40:57;;;;;;;;;83.75;63.25;;;;;7.98;87.59;101586.81;5077047;27;45413;-67
2022/03/05 04:43:22;;;;;;;;;86.50;62.50;;;;;7.89;87.11;101567.59;5077019;28;45651;-67
2022/03/05 04:45:48;;;;;;;;;89.00;63.00;;;;;8.07;87.30;101596.44;5079231;27;45257;-67
2022/03/05 04:48:13;;;;;;;;;80.00;61.25;;;;;8.00;87.66;101585.06;5080718;27;45257;-66
2022/03/05 04:50:39;;;;;;;;;86.75;63.75;;;;;8.09;87.08;101602.56;5080707;27;45439;-67
2022/03/05 04:53:04;;;;;;;;;82.25;59.25;;;;;7.92;84.42;101573.69;5080534;28;45387;-67
2022/03/05 04:55:29;;;;;;;;;83.00;61.75;;;;;8.06;86.73;101604.31;5080868;27;45289;-67
2022/03/05 04:57:55;;;;;;;;;78.75;59.25;;;;;7.72;85.06;101541.31;5080656;27;46546;-67
2022/03/05 05:00:20;;;;;;;;;82.75;59.50;;;;;8.10;85.13;101606.06;5080435;28;45428;-67
2022/03/05 05:02:46;;;;;;;;;77.00;55.50;;;;;8.06;86.29;101606.94;5080558;27;45340;-67
2022/03/05 05:05:12;;;;;;;;;79.50;58.00;;;;;8.11;86.69;101615.69;5080418;27;45305;-67
2022/03/05 05:07:38;;;;;;;;;77.75;57.75;;;;;8.10;85.48;101616.56;5080212;27;45705;-67
2022/03/05 05:10:04;;;;;;;;;84.25;61.75;;;;;8.15;86.78;101618.31;5080304;28;45249;-67
2022/03/05 05:12:29;;;;;;;;;84.25;58.50;;;;;8.10;85.73;101613.94;5080283;27;45497;-67
2022/03/05 05:14:55;;;;;;;;;81.75;59.75;;;;;8.17;85.44;101620.94;5080520;27;45221;-67
2022/03/05 05:17:20;;;;;;;;;88.00;60.00;;;;;8.14;86.33;101616.56;5080306;28;45741;-67
2022/03/05 05:19:46;;;;;;;;;80.50;60.00;;;;;8.10;87.12;101613.94;5080298;27;45575;-67
2022/03/05 05:22:11;;;;;;;;;80.25;59.50;;;;;8.11;87.17;101616.56;5080497;27;45383;-67
2022/03/05 05:24:38;;;;;;;;;84.50;60.00;;;;;8.18;87.13;101620.06;5080413;27;45393;-67
2022/03/05 05:27:03;;;;;;;;;81.00;60.50;;;;;8.18;86.89;101617.44;5079710;27;45372;-67
2022/03/05 05:29:29;;;;;;;;;83.25;60.75;;;;;8.18;86.38;101623.56;5079994;27;45548;-67
2022/03/05 05:31:55;;;;;;;;;77.00;56.00;;;;;8.21;86.91;101627.06;5079629;27;45708;-67
2022/03/05 05:34:21;;;;;;;;;93.50;61.75;;;;;8.24;86.45;101630.56;5080250;27;45458;-67
2022/03/05 05:36:47;;;;;;;;;88.75;64.25;;;;;8.21;87.12;101622.69;5079857;27;46535;-67
2022/03/05 05:39:13;;;;;;;;;87.25;64.50;;;;;8.24;86.72;101627.06;5080163;27;45274;-68
2022/03/05 05:41:39;;;;;;;;;90.75;69.25;;;;;8.21;86.54;101627.94;5080208;27;45311;-67
2022/03/05 05:44:08;;;;;;;;;87.25;65.00;;;;;8.22;88.36;101645.44;5080280;27;45320;-67
2022/03/05 05:46:34;;;;;;;;;85.00;62.00;;;;;8.18;88.16;101636.69;5079556;27;45303;-67
2022/03/05 05:48:59;;;;;;;;;88.75;68.00;;;;;8.15;88.26;101634.06;5079846;27;45280;-68
2022/03/05 05:51:28;;;;;;;;;86.00;69.50;;;;;7.98;88.21;101607.78;5079667;27;45457;-67
2022/03/05 05:53:55;;;;;;;;;95.75;70.75;;;;;7.95;88.06;101602.53;5080449;27;45439;-67
2022/03/05 05:56:20;;;;;;;;;85.25;64.50;;;;;8.28;87.25;101649.81;5079295;27;46319;-67
2022/03/05 05:58:48;;;;;;;;;89.75;70.25;;;;;8.24;87.56;101640.19;5079878;27;45339;-68
2022/03/05 06:01:14;;;;;;;;;93.00;67.75;;;;;8.34;87.19;101645.44;5079138;27;45451;-67
2022/03/05 06:03:39;;;;;;;;;79.50;64.25;;;;;8.21;87.62;101633.19;5079978;27;45991;-67
2022/03/05 06:06:04;;;;;;;;;90.25;65.00;;;;;8.29;86.79;101652.44;5079659;27;45828;-67
2022/03/05 06:08:30;;;;;;;;;90.25;66.25;;;;;8.34;85.33;101660.31;5079916;27;45520;-67
2022/03/05 06:10:57;;;;;;;;;89.00;68.25;;;;;8.27;85.07;101653.31;5079842;27;45786;-67
2022/03/05 06:13:22;;;;;;;;;82.75;58.75;;;;;8.22;85.97;101657.66;5079818;27;45545;-67
2022/03/05 06:15:48;;;;;;;;;93.50;69.00;;;;;8.13;86.10;101640.16;5079171;27;45420;-68
2022/03/05 06:18:13;;;;;;;;;91.00;71.75;;;;;8.23;88.38;101651.56;5079674;27;45442;-68
2022/03/05 06:20:38;;;;;;;;;88.25;65.00;;;;;8.29;87.89;101655.06;5079136;27;45258;-68
2022/03/05 06:23:04;;;;;;;;;94.25;70.50;;;;;8.27;88.37;101651.56;5079887;27;45350;-67
2022/03/05 06:25:30;;;;;;;;;88.00;67.50;;;;;8.23;86.74;101639.31;5079323;27;46642;-67
2022/03/05 06:27:55;;;;;;;;;90.75;69.50;;;;;8.31;88.07;101660.31;5079460;27;45267;-68
2022/03/05 06:30:21;;;;;;;;;94.50;69.00;;;;;8.37;87.47;101665.56;5078865;28;45355;-68
2022/03/05 06:32:46;;;;;;;;;90.25;70.00;;;;;8.41;87.37;101675.19;5079625;27;45143;-68
2022/03/05 06:35:12;;;;;;;;;85.75;64.75;;;;;8.35;87.39;101667.28;5079138;27;45526;-68
2022/03/05 06:37:37;;;;;;;;;89.25;73.00;;;;;8.26;88.34;101656.81;5078814;27;45519;-68
2022/03/05 06:40:04;;;;;;;;;101.25;76.50;;;;;8.28;87.85;101650.69;5079369;27;45257;-67
2022/03/05 06:42:30;;;;;;;;;89.50;71.00;;;;;8.34;86.39;101665.56;5079229;27;45415;-68
2022/03/05 06:44:55;;;;;;;;;88.50;64.50;;;;;8.35;85.92;101667.28;5078737;27;46498;-67
2022/03/05 06:47:21;;;;;;;;;100.00;67.00;;;;;8.12;87.48;101626.19;5079063;28;45375;-67
2022/03/05 06:49:46;;;;;;;;;86.00;68.00;;;;;8.35;88.44;101664.66;5079171;27;45581;-67
2022/03/05 06:52:11;;;;;;;;;100.25;74.50;;;;;8.33;88.62;101672.53;5079066;28;45390;-67
2022/03/05 06:54:37;;;;;;;;;92.75;75.00;;;;;8.36;88.70;101680.44;5079008;27;45242;-68
2022/03/05 06:57:03;;;;;;;;;92.75;70.50;;;;;8.40;87.85;101683.06;5078415;28;45780;-68
2022/03/05 06:59:29;;;;;;;;;100.00;69.50;;;;;8.35;88.34;101676.06;5078595;28;45473;-67
2022/03/05 07:01:54;;;;;;;;;87.75;69.00;;;;;8.48;85.51;101691.84;5078079;28;45398;-68
2022/03/05 07:04:20;;;;;;;;;95.50;73.50;;;;;8.45;86.66;101682.25;5077543;28;47107;-68
2022/03/05 07:06:45;;;;;;;;;93.25;72.00;;;;;8.47;87.24;101682.25;5078524;27;45362;-68
2022/03/05 07:09:10;;;;;;;;;85.75;67.00;;;;;8.45;86.79;101678.72;5077436;28;45240;-68
2022/03/05 07:11:36;;;;;;;;;82.75;64.25;;;;;8.46;87.15;101690.97;5078875;28;45196;-68
2022/03/05 07:14:01;;;;;;;;;85.50;60.50;;;;;8.43;85.80;101690.94;5078223;28;45735;-68
2022/03/05 07:16:27;;;;;;;;;97.25;78.25;;;;;8.36;85.80;101676.94;5078519;27;45343;-67
2022/03/05 07:18:53;;;;;;;;;91.50;72.50;;;;;8.43;85.93;101681.31;5078398;28;45307;-67
2022/03/05 07:21:18;;;;;;;;;87.25;67.75;;;;;8.53;84.51;101703.25;5078478;27;45332;-67
2022/03/05 07:23:43;;;;;;;;;99.50;74.50;;;;;8.54;86.19;101716.38;5078277;28;47162;-67
2022/03/05 07:26:09;;;;;;;;;92.00;73.00;;;;;8.57;86.79;101718.13;5078195;27;45332;-67
2022/03/05 07:28:34;;;;;;;;;89.75;72.25;;;;;8.42;86.45;101683.94;5078394;27;45800;-67
2022/03/05 07:30:59;;;;;;;;;89.00;63.00;;;;;8.46;86.43;101710.22;5078190;27;45387;-67
2022/03/05 07:33:26;;;;;;;;;112.25;80.25;;;;;8.51;85.56;101720.72;5078369;27;45357;-67
2022/03/05 07:35:52;;;;;;;;;94.50;69.25;;;;;8.53;85.46;101719.84;5077900;27;45394;-67
2022/03/05 07:38:17;;;;;;;;;99.00;74.25;;;;;8.46;85.17;101717.22;5078252;27;45343;-67
2022/03/05 07:40:43;;;;;;;;;88.25;72.00;;;;;8.58;84.86;101725.09;5078073;27;45496;-67
2022/03/05 07:43:08;;;;;;;;;85.75;64.25;;;;;8.60;82.90;101714.63;5077769;28;47199;-67
2022/03/05 07:45:33;;;;;;;;;89.00;70.25;;;;;8.47;82.49;101701.47;5077868;28;45364;-67
2022/03/05 07:47:59;;;;;;;;;86.00;64.00;;;;;8.54;82.62;101726.00;5078392;28;45217;-67
2022/03/05 07:50:24;;;;;;;;;86.00;70.50;;;;;8.49;83.55;101719.84;5078312;27;45258;-67
2022/03/05 07:52:50;;;;;;;;;89.75;66.25;;;;;8.58;83.46;101727.72;5077775;27;46445;-67
2022/03/05 07:55:15;;;;;;;;;97.25;71.00;;;;;8.60;82.81;101725.13;5077845;27;45437;-67
2022/03/05 07:57:41;;;;;;;;;89.50;65.50;;;;;8.63;82.08;101727.75;5078036;28;45200;-67
2022/03/05 08:00:07;;;;;;;;;87.50;67.25;;;;;8.47;82.49;101713.75;5077968;27;45245;-67
2022/03/05 08:02:32;;;;;;;;;99.25;65.75;;;;;8.61;82.51;101717.25;5077496;27;46283;-67
2022/03/05 08:04:58;;;;;;;;;89.50;68.75;;;;;8.78;82.31;101719.00;5077722;28;45424;-67
2022/03/05 08:07:24;;;;;;;;;93.50;68.75;;;;;8.89;81.08;101726.00;5077855;27;45294;-67
2022/03/05 08:09:50;;;;;;;;;88.25;60.00;;;;;8.96;79.33;101718.13;5077744;27;45480;-67
2022/03/05 08:12:15;;;;;;;;;84.75;62.50;;;;;8.92;79.66;101712.00;5077407;28;46485;-67
2022/03/05 08:14:42;;;;;;;;;91.00;64.75;;;;;8.89;79.15;101707.63;5076134;28;45473;-67
2022/03/05 08:17:07;;;;;;;;;91.75;65.25;;;;;9.03;78.96;101736.53;5077666;27;45513;-67
2022/03/05 08:19:33;;;;;;;;;82.50;63.75;;;;;9.02;80.06;101739.16;5077577;27;45315;-67
2022/03/05 08:21:58;;;;;;;;;87.25;66.00;;;;;9.15;78.54;101732.13;5077032;27;46490;-67
2022/03/05 08:24:24;;;;;;;;;88.25;65.75;;;;;9.15;78.70;101734.75;5078067;27;45402;-67
2022/03/05 08:26:49;;;;;;;;;84.50;67.50;;;;;9.22;78.94;101736.50;5077336;28;45383;-67
2022/03/05 08:29:14;;;;;;;;;88.00;67.00;;;;;9.36;77.64;101739.13;5077112;27;45443;-67
2022/03/05 08:31:40;;;;;;;;;80.00;62.50;;;;;9.37;76.96;101727.72;5077077;27;46588;-67
2022/03/05 08:34:06;;;;;;;;;90.25;65.75;;;;;9.59;76.39;101736.44;5076993;27;45398;-67
2022/03/05 08:36:32;;;;;;;;;87.50;70.00;;;;;9.94;76.02;101725.78;5077024;27;45247;-68
2022/03/05 08:38:58;;;;;;;;;84.50;67.50;;;;;10.66;73.57;101743.84;5077168;27;45537;-67
2022/03/05 08:41:24;;;;;;;;;88.75;65.00;;;;;11.08;71.19;101732.09;5077050;27;46117;-67
2022/03/05 08:43:51;;;;;;;;;84.25;66.00;;;;;11.15;70.79;101733.78;5077329;27;45560;-67
2022/03/05 08:46:17;;;;;;;;;91.00;81.25;;;;;11.09;70.58;101739.09;5076951;27;45434;-67
2022/03/05 08:48:42;;;;;;;;;83.00;62.25;;;;;10.98;71.67;101725.16;5077306;27;45238;-67
2022/03/05 08:51:07;;;;;;;;;90.25;75.50;;;;;11.14;70.58;101728.53;5076995;27;45454;-67
2022/03/05 08:53:33;;;;;;;;;84.25;64.50;;;;;11.61;68.88;101736.84;5076827;27;45225;-67
2022/03/05 08:55:58;;;;;;;;;81.00;62.50;;;;;11.82;67.98;101733.06;5077503;28;45383;-67
2022/03/05 08:58:24;;;;;;;;;85.25;67.25;;;;;12.18;65.91;101725.59;5076796;27;45344;-67
2022/03/05 09:00:50;;;;;;;;;86.00;69.00;;;;;12.40;67.17;101738.53;5076856;27;46313;-67
2022/03/05 09:03:16;;;;;;;;;84.75;65.00;;;;;12.46;65.71;101743.69;5077035;27;46089;-67
2022/03/05 09:05:42;;;;;;;;;82.75;64.25;;;;;12.49;66.21;101741.00;5076903;27;45569;-67
2022/03/05 09:08:08;;;;;;;;;83.00;62.50;;;;;12.28;66.19;101692.03;5077237;27;45277;-67
2022/03/05 09:10:33;;;;;;;;;84.00;67.00;;;;;12.78;64.42;101737.06;5076328;27;45979;-67
2022/03/05 09:12:59;;;;;;;;;85.75;65.50;;;;;12.83;63.68;101724.66;5076900;27;45231;-67
2022/03/05 09:15:25;;;;;;;;;81.75;60.25;;;;;12.95;64.17;101734.16;5083447;27;45462;-67
2022/03/05 09:17:51;;;;;;;;;79.25;62.25;;;;;13.16;64.10;101735.56;5097103;27;45527;-67
2022/03/05 09:20:17;;;;;;;;;83.50;64.75;;;;;13.28;62.75;101730.03;5097191;27;46671;-67
2022/03/05 09:22:43;;;;;;;;;81.25;66.75;;;;;13.49;62.63;101723.53;5089861;27;45492;-67
2022/03/05 09:25:10;;;;;;;;;82.00;66.00;;;;;13.55;62.37;101720.75;5076271;27;45331;-67
2022/03/05 09:27:35;;;;;;;;;81.50;68.25;;;;;13.46;62.02;101720.91;5076722;28;45319;-67
2022/03/05 09:30:00;;;;;;;;;88.75;70.50;;;;;13.56;61.68;101733.09;5076367;28;45452;-67
2022/03/05 09:32:26;;;;;;;;;77.50;62.75;;;;;13.77;61.24;101733.56;5078880;28;45250;-68
2022/03/05 09:34:51;;;;;;;;;80.00;68.75;;;;;13.88;61.01;101725.38;5079834;27;45244;-67
2022/03/05 09:37:17;;;;;;;;;90.25;76.25;;;;;14.02;58.98;101720.66;5080375;28;45406;-67
2022/03/05 09:39:42;;;;;;;;;78.00;65.00;;;;;14.30;57.86;101735.94;5079839;28;47399;-67
2022/03/05 09:42:08;;;;;;;;;89.00;69.00;;;;;14.43;57.69;101726.81;5080048;28;45170;-67
2022/03/05 09:44:34;;;;;;;;;77.00;62.00;;;;;14.79;57.26;101740.13;5079891;27;45395;-67
2022/03/05 09:47:01;;;;;;;;;84.25;73.75;;;;;14.85;56.35;101730.31;5079572;27;45490;-67
2022/03/05 09:49:28;;;;;;;;;126.00;107.00;;;;;14.83;56.14;101711.78;5083037;27;45376;-67
2022/03/05 09:51:54;;;;;;;;;81.00;70.25;;;;;15.15;55.74;101733.97;5079332;28;45454;-67
2022/03/05 09:54:20;;;;;;;;;78.25;68.50;;;;;15.29;55.01;101713.25;5079497;27;45280;-67
2022/03/05 09:56:46;;;;;;;;;78.25;67.75;;;;;15.52;54.98;101726.78;5079464;27;45412;-67
2022/03/05 09:59:12;;;;;;;;;86.75;72.25;;;;;15.48;56.28;101737.50;5079981;27;46535;-68
2022/03/05 10:01:39;;;;;;;;;84.75;69.75;;;;;15.48;57.63;101741.91;5078490;27;45482;-68
2022/03/05 10:04:18;;;;;;;;;86.00;69.25;;;;;15.33;57.02;101724.63;5079568;27;45283;-68
2022/03/05 10:06:43;;;;;;;;;78.00;67.50;;;;;15.46;57.75;101741.09;5079582;27;45841;-66
2022/03/05 10:09:21;;;;;;;;;79.50;68.50;;;;;15.67;57.01;101744.97;5079008;27;46320;-67
2022/03/05 10:11:47;;;;;;;;;82.75;74.75;;;;;15.56;55.46;101744.38;5079021;27;45416;-67
2022/03/05 10:14:16;;;;;;;;;105.00;79.75;;;;;15.44;55.89;101743.78;5079006;27;45280;-67
2022/03/05 10:16:42;;;;;;;;;88.75;74.75;;;;;15.34;55.86;101742.31;5078936;27;45521;-67
2022/03/05 10:19:22;;;;;;;;;94.00;81.50;;;;;15.37;56.10;101722.78;5078906;27;46487;-67
2022/03/05 10:22:04;;;;;;;;;79.25;70.25;;;;;15.51;55.76;101739.19;5078941;27;45441;-67
2022/03/05 10:24:40;;;;;;;;;93.25;81.25;;;;;15.42;54.63;101732.38;5078937;27;45467;-67
2022/03/05 10:27:08;;;;;;;;;86.50;76.75;;;;;15.38;53.43;101737.78;5078831;27;45398;-67
2022/03/05 10:29:36;;;;;;;;;89.50;78.75;;;;;15.08;53.64;101727.06;5079201;27;46171;-67
2022/03/05 10:32:12;;;;;;;;;88.50;76.75;;;;;15.07;53.22;101733.28;5078389;27;45415;-67
2022/03/05 10:34:52;;;;;;;;;84.50;69.25;;;;;14.91;53.50;101736.31;5078525;27;45419;-67
2022/03/05 10:37:19;;;;;;;;;78.50;70.00;;;;;14.80;53.56;101731.28;5078300;28;45424;-67
2022/03/05 10:39:45;;;;;;;;;84.50;68.50;;;;;14.68;52.59;101691.84;5078367;27;45576;-67
2022/03/05 10:42:17;;;;;;;;;81.00;67.25;;;;;15.26;53.28;101745.16;5077425;28;45544;-67
2022/03/05 10:44:43;;;;;;;;;78.00;68.50;;;;;15.43;52.68;101735.88;5078777;27;45315;-67
2022/03/05 10:47:09;;;;;;;;;75.50;63.00;;;;;15.41;52.04;101729.72;5078747;27;45742;-67
2022/03/05 10:49:39;;;;;;;;;76.25;62.75;;;;;15.48;51.37;101745.47;5078469;27;45291;-67
2022/03/05 10:52:08;;;;;;;;;75.75;63.75;;;;;15.66;52.38;101741.41;5077933;27;45383;-67
2022/03/05 10:54:39;;;;;;;;;76.75;68.50;;;;;15.73;50.91;101746.53;5078520;27;45436;-67
2022/03/05 10:57:15;;;;;;;;;77.00;63.25;;;;;15.70;50.83;101738.66;5078610;27;45427;-65
2022/03/05 10:59:43;;;;;;;;;80.00;67.50;;;;;15.69;49.99;101745.78;5077600;27;45647;-67
2022/03/05 11:02:11;;;;;;;;;79.50;66.00;;;;;15.57;50.52;101744.34;5078494;27;45806;-65
2022/03/05 11:04:37;;;;;;;;;75.25;60.75;;;;;15.59;50.47;101738.97;5078490;27;45665;-65
2022/03/05 11:07:04;;;;;;;;;85.25;77.00;;;;;15.64;50.14;101731.75;5078143;27;45416;-65
2022/03/05 11:09:30;;;;;;;;;78.00;66.00;;;;;15.72;50.64;101742.16;5078088;27;46681;-65
2022/03/05 11:11:59;;;;;;;;;76.25;64.00;;;;;15.76;50.88;101746.47;5078125;27;45326;-65